Terminal Aerodrome Forecast
Issued by NWS Sioux Falls, SD

Home | Current Version | Previous Version | Graphics & Text | Print | Product List | Glossary Off
Versions: 1 2 3 4 5 6 7 8 9 10 11 12

592
FTUS43 KFSD 191723
TAFFSD
TAF
KFSD 191723Z 1918/2018 03011G16KT P6SM SCT025
     FM192100 04009G14KT P6SM BKN120
     FM200300 05004KT P6SM OVC070
     FM201000 VRB03KT P6SM -RA OVC050
     FM201500 07007KT P6SM SCT035 BKN090=

USA.gov is the U.S. government's official web portal to all federal, state and local government web resources and services.